sensor_id;sensor_type;location;lat;lon;timestamp;P1;durP1;ratioP1;P2;durP2;ratioP2
11797;SDS011;5956;51.428;6.682;2022-08-14T00:02:04;4.65;;;4.13;;
11797;SDS011;5956;51.428;6.682;2022-08-14T00:04:31;5.07;;;4.60;;
11797;SDS011;5956;51.428;6.682;2022-08-14T00:06:58;4.65;;;4.30;;
11797;SDS011;5956;51.428;6.682;2022-08-14T00:09:26;4.72;;;4.32;;
11797;SDS011;5956;51.428;6.682;2022-08-14T00:11:53;5.35;;;4.95;;
11797;SDS011;5956;51.428;6.682;2022-08-14T00:14:20;4.88;;;4.40;;
11797;SDS011;5956;51.428;6.682;2022-08-14T00:16:46;5.55;;;5.05;;
11797;SDS011;5956;51.428;6.682;2022-08-14T00:19:14;5.40;;;4.90;;
11797;SDS011;5956;51.428;6.682;2022-08-14T00:21:41;5.35;;;4.70;;
11797;SDS011;5956;51.428;6.682;2022-08-14T00:24:08;4.70;;;4.40;;
11797;SDS011;5956;51.428;6.682;2022-08-14T00:26:36;7.47;;;4.65;;
11797;SDS011;5956;51.428;6.682;2022-08-14T00:29:02;7.22;;;4.38;;
11797;SDS011;5956;51.428;6.682;2022-08-14T00:31:29;5.00;;;4.70;;
11797;SDS011;5956;51.428;6.682;2022-08-14T00:33:55;4.65;;;4.25;;
11797;SDS011;5956;51.428;6.682;2022-08-14T00:36:22;4.63;;;4.22;;
11797;SDS011;5956;51.428;6.682;2022-08-14T00:38:49;4.93;;;4.63;;
11797;SDS011;5956;51.428;6.682;2022-08-14T00:41:16;4.70;;;4.38;;
11797;SDS011;5956;51.428;6.682;2022-08-14T00:43:44;5.03;;;4.72;;
11797;SDS011;5956;51.428;6.682;2022-08-14T00:46:11;5.38;;;4.88;;
11797;SDS011;5956;51.428;6.682;2022-08-14T00:48:37;5.07;;;4.78;;
11797;SDS011;5956;51.428;6.682;2022-08-14T00:51:05;5.28;;;4.78;;
11797;SDS011;5956;51.428;6.682;2022-08-14T00:53:32;5.47;;;5.07;;
11797;SDS011;5956;51.428;6.682;2022-08-14T00:56:00;5.18;;;4.70;;
11797;SDS011;5956;51.428;6.682;2022-08-14T00:58:27;5.07;;;4.63;;
11797;SDS011;5956;51.428;6.682;2022-08-14T01:00:58;5.13;;;4.72;;
11797;SDS011;5956;51.428;6.682;2022-08-14T01:03:26;5.18;;;4.60;;
11797;SDS011;5956;51.428;6.682;2022-08-14T01:05:54;5.00;;;4.60;;
11797;SDS011;5956;51.428;6.682;2022-08-14T01:08:22;5.53;;;5.03;;
11797;SDS011;5956;51.428;6.682;2022-08-14T01:10:49;5.10;;;4.70;;
11797;SDS011;5956;51.428;6.682;2022-08-14T01:13:18;5.30;;;4.90;;
11797;SDS011;5956;51.428;6.682;2022-08-14T01:15:46;5.47;;;5.07;;
11797;SDS011;5956;51.428;6.682;2022-08-14T01:18:15;5.80;;;5.28;;
11797;SDS011;5956;51.428;6.682;2022-08-14T01:20:55;5.80;;;5.30;;
11797;SDS011;5956;51.428;6.682;2022-08-14T01:23:32;5.82;;;5.43;;
11797;SDS011;5956;51.428;6.682;2022-08-14T01:25:58;6.57;;;6.00;;
11797;SDS011;5956;51.428;6.682;2022-08-14T01:28:23;5.90;;;5.40;;
11797;SDS011;5956;51.428;6.682;2022-08-14T01:30:50;5.65;;;5.25;;
11797;SDS011;5956;51.428;6.682;2022-08-14T01:33:20;5.70;;;5.30;;
11797;SDS011;5956;51.428;6.682;2022-08-14T01:35:47;6.32;;;5.82;;
11797;SDS011;5956;51.428;6.682;2022-08-14T01:38:13;5.50;;;5.13;;
11797;SDS011;5956;51.428;6.682;2022-08-14T01:40:41;5.70;;;5.35;;
11797;SDS011;5956;51.428;6.682;2022-08-14T01:43:09;5.85;;;5.40;;
11797;SDS011;5956;51.428;6.682;2022-08-14T01:45:41;5.88;;;5.47;;
11797;SDS011;5956;51.428;6.682;2022-08-14T01:48:09;5.68;;;5.28;;
11797;SDS011;5956;51.428;6.682;2022-08-14T01:50:35;5.90;;;5.38;;
11797;SDS011;5956;51.428;6.682;2022-08-14T01:53:02;5.35;;;4.95;;
11797;SDS011;5956;51.428;6.682;2022-08-14T01:55:29;7.30;;;5.53;;
11797;SDS011;5956;51.428;6.682;2022-08-14T01:57:57;5.97;;;5.57;;
11797;SDS011;5956;51.428;6.682;2022-08-14T02:00:23;5.70;;;5.30;;
11797;SDS011;5956;51.428;6.682;2022-08-14T02:02:50;6.47;;;5.90;;
11797;SDS011;5956;51.428;6.682;2022-08-14T02:05:17;6.28;;;5.70;;
11797;SDS011;5956;51.428;6.682;2022-08-14T02:07:43;7.13;;;5.93;;
11797;SDS011;5956;51.428;6.682;2022-08-14T02:10:12;6.45;;;6.05;;
11797;SDS011;5956;51.428;6.682;2022-08-14T02:12:39;6.47;;;5.88;;
11797;SDS011;5956;51.428;6.682;2022-08-14T02:15:07;6.80;;;6.25;;
11797;SDS011;5956;51.428;6.682;2022-08-14T02:17:34;6.53;;;6.03;;
11797;SDS011;5956;51.428;6.682;2022-08-14T02:20:01;6.53;;;6.05;;
11797;SDS011;5956;51.428;6.682;2022-08-14T02:22:28;6.50;;;6.05;;
11797;SDS011;5956;51.428;6.682;2022-08-14T02:24:55;5.55;;;5.10;;
11797;SDS011;5956;51.428;6.682;2022-08-14T02:27:21;6.45;;;5.93;;
11797;SDS011;5956;51.428;6.682;2022-08-14T02:29:48;6.18;;;5.60;;
11797;SDS011;5956;51.428;6.682;2022-08-14T02:32:16;6.68;;;6.03;;
11797;SDS011;5956;51.428;6.682;2022-08-14T02:34:44;6.53;;;6.03;;
11797;SDS011;5956;51.428;6.682;2022-08-14T02:37:11;6.00;;;5.50;;
11797;SDS011;5956;51.428;6.682;2022-08-14T02:39:39;5.75;;;5.30;;
11797;SDS011;5956;51.428;6.682;2022-08-14T02:42:07;6.13;;;5.72;;
11797;SDS011;5956;51.428;6.682;2022-08-14T02:44:34;6.15;;;5.68;;
11797;SDS011;5956;51.428;6.682;2022-08-14T02:47:03;6.78;;;6.25;;
11797;SDS011;5956;51.428;6.682;2022-08-14T02:49:32;6.32;;;5.93;;
11797;SDS011;5956;51.428;6.682;2022-08-14T02:51:59;6.68;;;6.20;;
11797;SDS011;5956;51.428;6.682;2022-08-14T02:54:27;6.45;;;5.95;;
11797;SDS011;5956;51.428;6.682;2022-08-14T02:56:55;6.30;;;5.80;;
11797;SDS011;5956;51.428;6.682;2022-08-14T02:59:23;6.60;;;6.00;;
11797;SDS011;5956;51.428;6.682;2022-08-14T03:01:54;6.22;;;5.68;;
11797;SDS011;5956;51.428;6.682;2022-08-14T03:04:21;6.57;;;6.00;;
11797;SDS011;5956;51.428;6.682;2022-08-14T03:06:50;7.55;;;6.85;;
11797;SDS011;5956;51.428;6.682;2022-08-14T03:09:16;6.60;;;6.15;;
11797;SDS011;5956;51.428;6.682;2022-08-14T03:11:43;7.28;;;6.57;;
11797;SDS011;5956;51.428;6.682;2022-08-14T03:14:09;7.03;;;6.43;;
11797;SDS011;5956;51.428;6.682;2022-08-14T03:16:37;7.45;;;6.85;;
11797;SDS011;5956;51.428;6.682;2022-08-14T03:19:04;6.88;;;6.38;;
11797;SDS011;5956;51.428;6.682;2022-08-14T03:21:33;6.00;;;5.60;;
11797;SDS011;5956;51.428;6.682;2022-08-14T03:24:02;6.93;;;6.43;;
11797;SDS011;5956;51.428;6.682;2022-08-14T03:26:36;7.18;;;6.57;;
11797;SDS011;5956;51.428;6.682;2022-08-14T03:29:03;7.53;;;6.75;;
11797;SDS011;5956;51.428;6.682;2022-08-14T03:31:30;7.32;;;6.75;;
11797;SDS011;5956;51.428;6.682;2022-08-14T03:33:57;7.75;;;7.05;;
11797;SDS011;5956;51.428;6.682;2022-08-14T03:36:24;8.90;;;6.53;;
11797;SDS011;5956;51.428;6.682;2022-08-14T03:38:50;7.82;;;7.10;;
11797;SDS011;5956;51.428;6.682;2022-08-14T03:41:22;7.05;;;6.55;;
11797;SDS011;5956;51.428;6.682;2022-08-14T03:43:49;7.78;;;6.97;;
11797;SDS011;5956;51.428;6.682;2022-08-14T03:46:16;7.85;;;7.18;;
11797;SDS011;5956;51.428;6.682;2022-08-14T03:48:44;7.10;;;6.68;;
11797;SDS011;5956;51.428;6.682;2022-08-14T03:51:11;7.03;;;6.53;;
11797;SDS011;5956;51.428;6.682;2022-08-14T03:53:39;7.45;;;6.95;;
11797;SDS011;5956;51.428;6.682;2022-08-14T03:56:06;7.60;;;7.00;;
11797;SDS011;5956;51.428;6.682;2022-08-14T03:58:39;8.52;;;7.90;;
11797;SDS011;5956;51.428;6.682;2022-08-14T04:01:06;7.90;;;7.38;;
11797;SDS011;5956;51.428;6.682;2022-08-14T04:03:33;8.18;;;7.47;;
11797;SDS011;5956;51.428;6.682;2022-08-14T04:06:00;8.95;;;8.23;;
11797;SDS011;5956;51.428;6.682;2022-08-14T04:08:26;8.30;;;7.70;;
11797;SDS011;5956;51.428;6.682;2022-08-14T04:10:53;7.85;;;7.15;;
11797;SDS011;5956;51.428;6.682;2022-08-14T04:13:20;7.28;;;6.82;;
11797;SDS011;5956;51.428;6.682;2022-08-14T04:15:48;7.93;;;7.22;;
11797;SDS011;5956;51.428;6.682;2022-08-14T04:18:14;8.13;;;7.13;;
11797;SDS011;5956;51.428;6.682;2022-08-14T04:20:41;8.52;;;7.88;;
11797;SDS011;5956;51.428;6.682;2022-08-14T04:23:08;8.35;;;7.85;;
11797;SDS011;5956;51.428;6.682;2022-08-14T04:25:34;9.52;;;8.30;;
11797;SDS011;5956;51.428;6.682;2022-08-14T04:28:02;9.10;;;7.95;;
11797;SDS011;5956;51.428;6.682;2022-08-14T04:30:29;9.77;;;8.88;;
11797;SDS011;5956;51.428;6.682;2022-08-14T04:32:57;8.88;;;8.07;;
11797;SDS011;5956;51.428;6.682;2022-08-14T04:35:24;9.05;;;8.18;;
11797;SDS011;5956;51.428;6.682;2022-08-14T04:37:50;9.07;;;8.07;;
11797;SDS011;5956;51.428;6.682;2022-08-14T04:40:31;8.35;;;7.68;;
11797;SDS011;5956;51.428;6.682;2022-08-14T04:43:15;10.02;;;8.80;;
11797;SDS011;5956;51.428;6.682;2022-08-14T04:45:59;9.52;;;8.75;;
11797;SDS011;5956;51.428;6.682;2022-08-14T04:48:26;9.43;;;8.50;;
11797;SDS011;5956;51.428;6.682;2022-08-14T04:50:53;8.95;;;8.13;;
11797;SDS011;5956;51.428;6.682;2022-08-14T04:53:20;8.57;;;7.70;;
11797;SDS011;5956;51.428;6.682;2022-08-14T04:55:47;7.68;;;7.18;;
11797;SDS011;5956;51.428;6.682;2022-08-14T04:58:14;8.27;;;7.50;;
11797;SDS011;5956;51.428;6.682;2022-08-14T05:00:41;8.43;;;7.72;;
11797;SDS011;5956;51.428;6.682;2022-08-14T05:03:09;8.27;;;7.68;;
11797;SDS011;5956;51.428;6.682;2022-08-14T05:05:38;8.20;;;7.60;;
11797;SDS011;5956;51.428;6.682;2022-08-14T05:08:06;10.90;;;9.90;;
11797;SDS011;5956;51.428;6.682;2022-08-14T05:10:34;11.38;;;10.50;;
11797;SDS011;5956;51.428;6.682;2022-08-14T05:13:01;9.20;;;8.40;;
11797;SDS011;5956;51.428;6.682;2022-08-14T05:15:29;8.80;;;8.10;;
11797;SDS011;5956;51.428;6.682;2022-08-14T05:17:56;9.70;;;8.85;;
11797;SDS011;5956;51.428;6.682;2022-08-14T05:20:22;8.95;;;8.18;;
11797;SDS011;5956;51.428;6.682;2022-08-14T05:22:51;10.30;;;9.00;;
11797;SDS011;5956;51.428;6.682;2022-08-14T05:25:17;9.75;;;8.85;;
11797;SDS011;5956;51.428;6.682;2022-08-14T05:27:44;9.68;;;8.98;;
11797;SDS011;5956;51.428;6.682;2022-08-14T05:30:10;9.43;;;8.68;;
11797;SDS011;5956;51.428;6.682;2022-08-14T05:32:39;8.35;;;7.65;;
11797;SDS011;5956;51.428;6.682;2022-08-14T05:35:07;8.80;;;8.05;;
11797;SDS011;5956;51.428;6.682;2022-08-14T05:37:35;8.77;;;8.18;;
11797;SDS011;5956;51.428;6.682;2022-08-14T05:40:05;8.95;;;8.35;;
11797;SDS011;5956;51.428;6.682;2022-08-14T05:42:35;9.43;;;8.50;;
11797;SDS011;5956;51.428;6.682;2022-08-14T05:45:03;9.32;;;8.63;;
11797;SDS011;5956;51.428;6.682;2022-08-14T05:47:31;9.80;;;8.88;;
11797;SDS011;5956;51.428;6.682;2022-08-14T05:49:58;10.00;;;9.20;;
11797;SDS011;5956;51.428;6.682;2022-08-14T05:52:25;8.55;;;7.85;;
11797;SDS011;5956;51.428;6.682;2022-08-14T05:54:52;10.00;;;9.23;;
11797;SDS011;5956;51.428;6.682;2022-08-14T05:57:20;9.05;;;8.25;;
11797;SDS011;5956;51.428;6.682;2022-08-14T05:59:46;9.68;;;8.88;;
11797;SDS011;5956;51.428;6.682;2022-08-14T06:02:13;9.45;;;8.75;;
11797;SDS011;5956;51.428;6.682;2022-08-14T06:04:39;9.63;;;8.88;;
11797;SDS011;5956;51.428;6.682;2022-08-14T06:07:12;9.35;;;8.75;;
11797;SDS011;5956;51.428;6.682;2022-08-14T06:09:38;9.43;;;8.63;;
11797;SDS011;5956;51.428;6.682;2022-08-14T06:12:05;9.13;;;8.43;;
11797;SDS011;5956;51.428;6.682;2022-08-14T06:14:33;9.18;;;8.32;;
11797;SDS011;5956;51.428;6.682;2022-08-14T06:17:00;8.85;;;8.15;;
11797;SDS011;5956;51.428;6.682;2022-08-14T06:19:26;8.07;;;7.57;;
11797;SDS011;5956;51.428;6.682;2022-08-14T06:21:53;8.43;;;7.85;;
11797;SDS011;5956;51.428;6.682;2022-08-14T06:24:19;8.27;;;7.68;;
11797;SDS011;5956;51.428;6.682;2022-08-14T06:26:46;9.02;;;8.32;;
11797;SDS011;5956;51.428;6.682;2022-08-14T06:29:12;8.73;;;7.95;;
11797;SDS011;5956;51.428;6.682;2022-08-14T06:31:40;11.25;;;10.43;;
11797;SDS011;5956;51.428;6.682;2022-08-14T06:34:08;10.10;;;7.57;;
11797;SDS011;5956;51.428;6.682;2022-08-14T06:36:34;8.32;;;7.63;;
11797;SDS011;5956;51.428;6.682;2022-08-14T06:39:02;8.50;;;7.90;;
11797;SDS011;5956;51.428;6.682;2022-08-14T06:41:29;8.50;;;7.90;;
11797;SDS011;5956;51.428;6.682;2022-08-14T06:43:56;8.70;;;8.02;;
11797;SDS011;5956;51.428;6.682;2022-08-14T06:46:23;8.13;;;7.53;;
11797;SDS011;5956;51.428;6.682;2022-08-14T06:48:50;9.10;;;8.35;;
11797;SDS011;5956;51.428;6.682;2022-08-14T06:51:17;8.95;;;8.30;;
11797;SDS011;5956;51.428;6.682;2022-08-14T06:53:43;9.15;;;8.55;;
11797;SDS011;5956;51.428;6.682;2022-08-14T06:56:11;9.40;;;8.60;;
11797;SDS011;5956;51.428;6.682;2022-08-14T06:58:38;8.35;;;7.65;;
11797;SDS011;5956;51.428;6.682;2022-08-14T07:01:04;7.95;;;7.30;;
11797;SDS011;5956;51.428;6.682;2022-08-14T07:03:45;8.25;;;7.65;;
11797;SDS011;5956;51.428;6.682;2022-08-14T07:06:30;8.75;;;7.97;;
11797;SDS011;5956;51.428;6.682;2022-08-14T07:08:55;8.50;;;7.90;;
11797;SDS011;5956;51.428;6.682;2022-08-14T07:11:21;7.90;;;7.20;;
11797;SDS011;5956;51.428;6.682;2022-08-14T07:13:46;8.07;;;7.57;;
11797;SDS011;5956;51.428;6.682;2022-08-14T07:16:13;9.38;;;8.65;;
11797;SDS011;5956;51.428;6.682;2022-08-14T07:18:39;8.35;;;7.65;;
11797;SDS011;5956;51.428;6.682;2022-08-14T07:21:07;8.23;;;7.63;;
11797;SDS011;5956;51.428;6.682;2022-08-14T07:23:35;8.77;;;7.95;;
11797;SDS011;5956;51.428;6.682;2022-08-14T07:26:03;8.15;;;7.55;;
11797;SDS011;5956;51.428;6.682;2022-08-14T07:28:31;8.20;;;7.63;;
11797;SDS011;5956;51.428;6.682;2022-08-14T07:30:59;8.30;;;7.70;;
11797;SDS011;5956;51.428;6.682;2022-08-14T07:33:27;8.35;;;7.80;;
11797;SDS011;5956;51.428;6.682;2022-08-14T07:35:54;8.07;;;7.53;;
11797;SDS011;5956;51.428;6.682;2022-08-14T07:38:21;8.80;;;7.97;;
11797;SDS011;5956;51.428;6.682;2022-08-14T07:40:50;8.27;;;7.68;;
11797;SDS011;5956;51.428;6.682;2022-08-14T07:43:16;8.95;;;8.20;;
11797;SDS011;5956;51.428;6.682;2022-08-14T07:45:43;7.82;;;7.28;;
11797;SDS011;5956;51.428;6.682;2022-08-14T07:48:10;9.05;;;8.20;;
11797;SDS011;5956;51.428;6.682;2022-08-14T07:50:37;7.85;;;7.25;;
11797;SDS011;5956;51.428;6.682;2022-08-14T07:53:03;8.50;;;7.80;;
11797;SDS011;5956;51.428;6.682;2022-08-14T07:55:31;8.77;;;8.10;;
11797;SDS011;5956;51.428;6.682;2022-08-14T07:57:59;8.18;;;7.57;;
11797;SDS011;5956;51.428;6.682;2022-08-14T08:00:25;7.72;;;7.10;;
11797;SDS011;5956;51.428;6.682;2022-08-14T08:02:53;8.23;;;7.63;;
11797;SDS011;5956;51.428;6.682;2022-08-14T08:05:21;7.55;;;6.97;;
11797;SDS011;5956;51.428;6.682;2022-08-14T08:07:49;8.35;;;7.75;;
11797;SDS011;5956;51.428;6.682;2022-08-14T08:10:18;7.93;;;7.43;;
11797;SDS011;5956;51.428;6.682;2022-08-14T08:13:02;8.98;;;8.27;;
11797;SDS011;5956;51.428;6.682;2022-08-14T08:15:29;7.80;;;7.25;;
11797;SDS011;5956;51.428;6.682;2022-08-14T08:17:57;8.02;;;7.43;;
11797;SDS011;5956;51.428;6.682;2022-08-14T08:20:24;8.00;;;7.30;;
11797;SDS011;5956;51.428;6.682;2022-08-14T08:22:51;7.82;;;7.25;;
11797;SDS011;5956;51.428;6.682;2022-08-14T08:25:20;8.90;;;8.10;;
11797;SDS011;5956;51.428;6.682;2022-08-14T08:30:31;7.95;;;7.43;;
11797;SDS011;5956;51.428;6.682;2022-08-14T08:32:58;8.63;;;7.93;;
11797;SDS011;5956;51.428;6.682;2022-08-14T08:35:26;8.98;;;7.80;;
11797;SDS011;5956;51.428;6.682;2022-08-14T08:37:59;7.88;;;7.28;;
11797;SDS011;5956;51.428;6.682;2022-08-14T08:40:26;8.65;;;8.05;;
11797;SDS011;5956;51.428;6.682;2022-08-14T08:42:53;7.70;;;7.07;;
11797;SDS011;5956;51.428;6.682;2022-08-14T08:45:20;8.13;;;7.43;;
11797;SDS011;5956;51.428;6.682;2022-08-14T08:47:49;7.53;;;7.10;;
11797;SDS011;5956;51.428;6.682;2022-08-14T08:50:16;8.27;;;7.65;;
11797;SDS011;5956;51.428;6.682;2022-08-14T08:52:46;9.18;;;7.90;;
11797;SDS011;5956;51.428;6.682;2022-08-14T08:55:13;8.57;;;7.97;;
11797;SDS011;5956;51.428;6.682;2022-08-14T08:57:40;7.97;;;7.47;;
11797;SDS011;5956;51.428;6.682;2022-08-14T09:00:14;8.35;;;7.68;;
11797;SDS011;5956;51.428;6.682;2022-08-14T09:02:41;7.95;;;7.32;;
11797;SDS011;5956;51.428;6.682;2022-08-14T09:05:09;8.00;;;7.50;;
11797;SDS011;5956;51.428;6.682;2022-08-14T09:07:36;8.68;;;7.60;;
11797;SDS011;5956;51.428;6.682;2022-08-14T09:10:02;7.93;;;7.25;;
11797;SDS011;5956;51.428;6.682;2022-08-14T09:12:30;7.40;;;6.90;;
11797;SDS011;5956;51.428;6.682;2022-08-14T09:14:57;7.40;;;6.80;;
11797;SDS011;5956;51.428;6.682;2022-08-14T09:17:24;7.10;;;6.70;;
11797;SDS011;5956;51.428;6.682;2022-08-14T09:19:50;7.55;;;7.05;;
11797;SDS011;5956;51.428;6.682;2022-08-14T09:22:18;7.38;;;6.97;;
11797;SDS011;5956;51.428;6.682;2022-08-14T09:24:45;7.60;;;7.05;;
11797;SDS011;5956;51.428;6.682;2022-08-14T09:27:13;7.30;;;6.90;;
11797;SDS011;5956;51.428;6.682;2022-08-14T09:29:39;7.28;;;6.82;;
11797;SDS011;5956;51.428;6.682;2022-08-14T09:32:07;8.20;;;7.60;;
11797;SDS011;5956;51.428;6.682;2022-08-14T09:34:40;8.18;;;7.32;;
11797;SDS011;5956;51.428;6.682;2022-08-14T09:37:12;8.25;;;7.53;;
11797;SDS011;5956;51.428;6.682;2022-08-14T09:39:42;9.55;;;8.68;;
11797;SDS011;5956;51.428;6.682;2022-08-14T09:42:15;7.78;;;7.20;;
11797;SDS011;5956;51.428;6.682;2022-08-14T09:44:49;7.63;;;7.13;;
11797;SDS011;5956;51.428;6.682;2022-08-14T09:50:02;8.60;;;7.85;;
11797;SDS011;5956;51.428;6.682;2022-08-14T09:52:31;7.40;;;6.80;;
11797;SDS011;5956;51.428;6.682;2022-08-14T09:55:00;8.07;;;7.38;;
11797;SDS011;5956;51.428;6.682;2022-08-14T09:57:27;7.25;;;6.75;;
11797;SDS011;5956;51.428;6.682;2022-08-14T09:59:55;7.05;;;6.65;;
11797;SDS011;5956;51.428;6.682;2022-08-14T10:02:23;7.22;;;6.72;;
11797;SDS011;5956;51.428;6.682;2022-08-14T10:04:58;6.68;;;6.28;;
11797;SDS011;5956;51.428;6.682;2022-08-14T10:07:28;7.55;;;6.85;;
11797;SDS011;5956;51.428;6.682;2022-08-14T10:09:55;6.97;;;6.43;;
11797;SDS011;5956;51.428;6.682;2022-08-14T10:12:23;6.32;;;5.93;;
11797;SDS011;5956;51.428;6.682;2022-08-14T10:14:50;6.07;;;5.57;;
11797;SDS011;5956;51.428;6.682;2022-08-14T10:17:20;6.03;;;5.60;;
11797;SDS011;5956;51.428;6.682;2022-08-14T10:19:48;6.05;;;5.57;;
11797;SDS011;5956;51.428;6.682;2022-08-14T10:22:15;6.72;;;5.88;;
11797;SDS011;5956;51.428;6.682;2022-08-14T10:24:49;6.35;;;5.95;;
11797;SDS011;5956;51.428;6.682;2022-08-14T10:27:17;6.80;;;6.30;;
11797;SDS011;5956;51.428;6.682;2022-08-14T10:29:46;7.22;;;6.53;;
11797;SDS011;5956;51.428;6.682;2022-08-14T10:32:13;6.32;;;5.82;;
11797;SDS011;5956;51.428;6.682;2022-08-14T10:34:40;6.32;;;5.88;;
11797;SDS011;5956;51.428;6.682;2022-08-14T10:37:07;6.00;;;5.60;;
11797;SDS011;5956;51.428;6.682;2022-08-14T10:39:35;6.95;;;6.20;;
11797;SDS011;5956;51.428;6.682;2022-08-14T10:42:03;6.40;;;5.93;;
11797;SDS011;5956;51.428;6.682;2022-08-14T10:44:32;8.38;;;6.10;;
11797;SDS011;5956;51.428;6.682;2022-08-14T10:47:01;6.15;;;5.68;;
11797;SDS011;5956;51.428;6.682;2022-08-14T10:49:33;6.18;;;5.78;;
11797;SDS011;5956;51.428;6.682;2022-08-14T10:52:01;6.38;;;5.75;;
11797;SDS011;5956;51.428;6.682;2022-08-14T10:54:38;6.03;;;5.47;;
11797;SDS011;5956;51.428;6.682;2022-08-14T10:57:13;6.80;;;6.18;;
11797;SDS011;5956;51.428;6.682;2022-08-14T10:59:42;5.88;;;5.55;;
11797;SDS011;5956;51.428;6.682;2022-08-14T11:02:19;5.97;;;5.55;;
11797;SDS011;5956;51.428;6.682;2022-08-14T11:04:56;6.60;;;6.10;;
11797;SDS011;5956;51.428;6.682;2022-08-14T11:07:22;5.97;;;5.60;;
11797;SDS011;5956;51.428;6.682;2022-08-14T11:09:52;6.60;;;5.93;;
11797;SDS011;5956;51.428;6.682;2022-08-14T11:12:18;6.07;;;5.72;;
11797;SDS011;5956;51.428;6.682;2022-08-14T11:14:49;5.95;;;5.65;;
11797;SDS011;5956;51.428;6.682;2022-08-14T11:17:15;5.55;;;5.25;;
11797;SDS011;5956;51.428;6.682;2022-08-14T11:19:43;9.20;;;8.40;;
11797;SDS011;5956;51.428;6.682;2022-08-14T11:22:10;7.00;;;6.50;;
11797;SDS011;5956;51.428;6.682;2022-08-14T11:24:37;6.22;;;5.85;;
11797;SDS011;5956;51.428;6.682;2022-08-14T11:27:04;7.05;;;6.55;;
11797;SDS011;5956;51.428;6.682;2022-08-14T11:29:31;6.32;;;5.82;;
11797;SDS011;5956;51.428;6.682;2022-08-14T11:31:58;6.30;;;5.90;;
11797;SDS011;5956;51.428;6.682;2022-08-14T11:34:25;6.20;;;5.70;;
11797;SDS011;5956;51.428;6.682;2022-08-14T11:36:53;6.30;;;5.95;;
11797;SDS011;5956;51.428;6.682;2022-08-14T11:39:20;6.97;;;6.45;;
11797;SDS011;5956;51.428;6.682;2022-08-14T11:41:47;6.28;;;5.80;;
11797;SDS011;5956;51.428;6.682;2022-08-14T11:44:13;6.18;;;5.72;;
11797;SDS011;5956;51.428;6.682;2022-08-14T11:46:40;6.57;;;6.15;;
11797;SDS011;5956;51.428;6.682;2022-08-14T11:49:07;7.25;;;6.53;;
11797;SDS011;5956;51.428;6.682;2022-08-14T11:51:34;7.13;;;6.53;;
11797;SDS011;5956;51.428;6.682;2022-08-14T11:54:03;6.80;;;6.50;;
11797;SDS011;5956;51.428;6.682;2022-08-14T11:56:32;7.28;;;6.82;;
11797;SDS011;5956;51.428;6.682;2022-08-14T11:58:59;6.93;;;6.25;;
11797;SDS011;5956;51.428;6.682;2022-08-14T12:01:26;6.70;;;6.10;;
11797;SDS011;5956;51.428;6.682;2022-08-14T12:04:06;5.68;;;5.32;;
11797;SDS011;5956;51.428;6.682;2022-08-14T12:06:42;6.78;;;6.28;;
11797;SDS011;5956;51.428;6.682;2022-08-14T12:09:10;6.75;;;6.35;;
11797;SDS011;5956;51.428;6.682;2022-08-14T12:11:38;5.95;;;5.65;;
11797;SDS011;5956;51.428;6.682;2022-08-14T12:14:06;6.47;;;6.03;;
11797;SDS011;5956;51.428;6.682;2022-08-14T12:16:32;8.65;;;6.25;;
11797;SDS011;5956;51.428;6.682;2022-08-14T12:19:00;7.07;;;6.47;;
11797;SDS011;5956;51.428;6.682;2022-08-14T12:21:26;7.03;;;6.47;;
11797;SDS011;5956;51.428;6.682;2022-08-14T12:23:59;6.88;;;6.35;;
11797;SDS011;5956;51.428;6.682;2022-08-14T12:26:27;6.07;;;5.78;;
11797;SDS011;5956;51.428;6.682;2022-08-14T12:29:03;6.50;;;5.90;;
11797;SDS011;5956;51.428;6.682;2022-08-14T12:31:32;5.97;;;5.57;;
11797;SDS011;5956;51.428;6.682;2022-08-14T12:33:59;5.70;;;5.30;;
11797;SDS011;5956;51.428;6.682;2022-08-14T12:36:27;6.30;;;5.80;;
11797;SDS011;5956;51.428;6.682;2022-08-14T12:38:55;5.15;;;4.80;;
11797;SDS011;5956;51.428;6.682;2022-08-14T12:41:23;5.43;;;5.03;;
11797;SDS011;5956;51.428;6.682;2022-08-14T12:43:53;7.88;;;5.53;;
11797;SDS011;5956;51.428;6.682;2022-08-14T12:46:21;5.68;;;5.28;;
11797;SDS011;5956;51.428;6.682;2022-08-14T12:48:48;6.00;;;5.60;;
11797;SDS011;5956;51.428;6.682;2022-08-14T12:51:16;5.38;;;5.07;;
11797;SDS011;5956;51.428;6.682;2022-08-14T12:53:44;6.00;;;5.60;;
11797;SDS011;5956;51.428;6.682;2022-08-14T12:56:11;5.75;;;5.43;;
11797;SDS011;5956;51.428;6.682;2022-08-14T12:58:46;6.53;;;6.03;;
11797;SDS011;5956;51.428;6.682;2022-08-14T13:01:18;5.18;;;4.78;;
11797;SDS011;5956;51.428;6.682;2022-08-14T13:03:45;5.20;;;5.00;;
11797;SDS011;5956;51.428;6.682;2022-08-14T13:06:12;5.10;;;4.82;;
11797;SDS011;5956;51.428;6.682;2022-08-14T13:08:39;5.60;;;5.30;;
11797;SDS011;5956;51.428;6.682;2022-08-14T13:11:09;5.85;;;5.43;;
11797;SDS011;5956;51.428;6.682;2022-08-14T13:13:36;5.43;;;5.03;;
11797;SDS011;5956;51.428;6.682;2022-08-14T13:16:04;5.20;;;4.85;;
11797;SDS011;5956;51.428;6.682;2022-08-14T13:18:32;5.18;;;4.90;;
11797;SDS011;5956;51.428;6.682;2022-08-14T13:20:59;5.45;;;4.97;;
11797;SDS011;5956;51.428;6.682;2022-08-14T13:23:27;5.75;;;5.45;;
11797;SDS011;5956;51.428;6.682;2022-08-14T13:25:57;5.93;;;5.63;;
11797;SDS011;5956;51.428;6.682;2022-08-14T13:28:24;5.97;;;5.57;;
11797;SDS011;5956;51.428;6.682;2022-08-14T13:30:51;5.38;;;5.10;;
11797;SDS011;5956;51.428;6.682;2022-08-14T13:33:18;4.82;;;4.55;;
11797;SDS011;5956;51.428;6.682;2022-08-14T13:35:48;6.00;;;5.60;;
11797;SDS011;5956;51.428;6.682;2022-08-14T13:38:17;5.30;;;5.00;;
11797;SDS011;5956;51.428;6.682;2022-08-14T13:40:44;5.30;;;4.93;;
11797;SDS011;5956;51.428;6.682;2022-08-14T13:43:11;6.05;;;5.63;;
11797;SDS011;5956;51.428;6.682;2022-08-14T13:45:37;5.10;;;4.88;;
11797;SDS011;5956;51.428;6.682;2022-08-14T13:48:04;4.90;;;4.70;;
11797;SDS011;5956;51.428;6.682;2022-08-14T13:50:31;5.47;;;5.15;;
11797;SDS011;5956;51.428;6.682;2022-08-14T13:52:59;5.28;;;4.90;;
11797;SDS011;5956;51.428;6.682;2022-08-14T13:55:28;5.65;;;5.35;;
11797;SDS011;5956;51.428;6.682;2022-08-14T13:57:56;5.70;;;5.40;;
11797;SDS011;5956;51.428;6.682;2022-08-14T14:00:23;5.45;;;5.10;;
11797;SDS011;5956;51.428;6.682;2022-08-14T14:02:50;5.55;;;5.25;;
11797;SDS011;5956;51.428;6.682;2022-08-14T14:05:17;5.57;;;5.15;;
11797;SDS011;5956;51.428;6.682;2022-08-14T14:07:45;6.75;;;6.13;;
11797;SDS011;5956;51.428;6.682;2022-08-14T14:10:14;6.60;;;6.07;;
11797;SDS011;5956;51.428;6.682;2022-08-14T14:12:42;5.88;;;5.57;;
11797;SDS011;5956;51.428;6.682;2022-08-14T14:15:11;6.15;;;5.85;;
11797;SDS011;5956;51.428;6.682;2022-08-14T14:17:38;5.93;;;5.60;;
11797;SDS011;5956;51.428;6.682;2022-08-14T14:20:05;6.60;;;6.10;;
11797;SDS011;5956;51.428;6.682;2022-08-14T14:22:32;9.40;;;8.70;;
11797;SDS011;5956;51.428;6.682;2022-08-14T14:24:58;6.00;;;5.70;;
11797;SDS011;5956;51.428;6.682;2022-08-14T14:27:27;6.43;;;5.95;;
11797;SDS011;5956;51.428;6.682;2022-08-14T14:29:58;4.85;;;4.55;;
11797;SDS011;5956;51.428;6.682;2022-08-14T14:32:27;5.40;;;4.90;;
11797;SDS011;5956;51.428;6.682;2022-08-14T14:34:54;5.07;;;4.63;;
11797;SDS011;5956;51.428;6.682;2022-08-14T14:37:25;5.30;;;5.00;;
11797;SDS011;5956;51.428;6.682;2022-08-14T14:39:52;5.10;;;4.80;;
11797;SDS011;5956;51.428;6.682;2022-08-14T14:42:20;4.72;;;4.43;;
11797;SDS011;5956;51.428;6.682;2022-08-14T14:44:51;5.13;;;4.82;;
11797;SDS011;5956;51.428;6.682;2022-08-14T14:47:20;5.43;;;5.13;;
11797;SDS011;5956;51.428;6.682;2022-08-14T14:49:47;5.05;;;4.75;;
11797;SDS011;5956;51.428;6.682;2022-08-14T14:52:14;4.97;;;4.68;;
11797;SDS011;5956;51.428;6.682;2022-08-14T14:54:41;5.13;;;4.72;;
11797;SDS011;5956;51.428;6.682;2022-08-14T14:57:10;4.95;;;4.65;;
11797;SDS011;5956;51.428;6.682;2022-08-14T14:59:38;5.10;;;4.90;;
11797;SDS011;5956;51.428;6.682;2022-08-14T15:02:06;5.30;;;5.00;;
11797;SDS011;5956;51.428;6.682;2022-08-14T15:04:34;4.88;;;4.57;;
11797;SDS011;5956;51.428;6.682;2022-08-14T15:07:01;5.03;;;4.72;;
11797;SDS011;5956;51.428;6.682;2022-08-14T15:09:28;4.72;;;4.43;;
11797;SDS011;5956;51.428;6.682;2022-08-14T15:11:54;4.78;;;4.53;;